sensor_id;sensor_type;location;lat;lon;timestamp;temperature;humidity
32322;DHT22;61553;48.994;8.940;2023-02-27T00:00:59;-1.80;99.90
32322;DHT22;61553;48.994;8.940;2023-02-27T00:03:25;-1.80;99.90
32322;DHT22;61553;48.994;8.940;2023-02-27T00:05:51;-1.70;99.90
32322;DHT22;61553;48.994;8.940;2023-02-27T00:08:16;-1.80;99.90
32322;DHT22;61553;48.994;8.940;2023-02-27T00:10:42;-1.80;99.90
32322;DHT22;61553;48.994;8.940;2023-02-27T00:13:08;-1.80;99.90
32322;DHT22;61553;48.994;8.940;2023-02-27T00:15:35;-1.90;99.90
32322;DHT22;61553;48.994;8.940;2023-02-27T00:18:02;-1.90;99.90
32322;DHT22;61553;48.994;8.940;2023-02-27T00:20:28;-1.90;99.90
32322;DHT22;61553;48.994;8.940;2023-02-27T00:22:56;-2.00;99.90
32322;DHT22;61553;48.994;8.940;2023-02-27T00:25:22;-2.00;99.90
32322;DHT22;61553;48.994;8.940;2023-02-27T00:27:47;-2.00;99.90
32322;DHT22;61553;48.994;8.940;2023-02-27T00:30:14;-1.90;99.90
32322;DHT22;61553;48.994;8.940;2023-02-27T00:32:40;-1.90;99.90
32322;DHT22;61553;48.994;8.940;2023-02-27T00:35:08;-1.80;99.90
32322;DHT22;61553;48.994;8.940;2023-02-27T00:37:34;-1.90;99.90
32322;DHT22;61553;48.994;8.940;2023-02-27T00:40:00;-1.90;99.90
32322;DHT22;61553;48.994;8.940;2023-02-27T00:42:26;-1.90;99.90
32322;DHT22;61553;48.994;8.940;2023-02-27T00:44:53;-2.00;99.90
32322;DHT22;61553;48.994;8.940;2023-02-27T00:47:18;-2.00;99.90
32322;DHT22;61553;48.994;8.940;2023-02-27T00:49:44;-2.00;99.90
32322;DHT22;61553;48.994;8.940;2023-02-27T00:52:10;-2.10;99.90
32322;DHT22;61553;48.994;8.940;2023-02-27T00:54:35;-2.00;99.90
32322;DHT22;61553;48.994;8.940;2023-02-27T00:57:01;-2.00;99.90
32322;DHT22;61553;48.994;8.940;2023-02-27T00:59:26;-2.00;99.90
32322;DHT22;61553;48.994;8.940;2023-02-27T01:01:52;-2.00;99.90
32322;DHT22;61553;48.994;8.940;2023-02-27T01:04:18;-1.90;99.90
32322;DHT22;61553;48.994;8.940;2023-02-27T01:06:43;-1.90;99.90
32322;DHT22;61553;48.994;8.940;2023-02-27T01:09:09;-1.90;99.90
32322;DHT22;61553;48.994;8.940;2023-02-27T01:11:34;-1.90;99.90
32322;DHT22;61553;48.994;8.940;2023-02-27T01:14:00;-2.00;99.90
32322;DHT22;61553;48.994;8.940;2023-02-27T01:16:26;-2.00;99.90
32322;DHT22;61553;48.994;8.940;2023-02-27T01:18:52;-2.00;99.90
32322;DHT22;61553;48.994;8.940;2023-02-27T01:21:18;-2.10;99.90
32322;DHT22;61553;48.994;8.940;2023-02-27T01:23:44;-2.10;99.90
32322;DHT22;61553;48.994;8.940;2023-02-27T01:26:10;-2.10;99.90
32322;DHT22;61553;48.994;8.940;2023-02-27T01:28:35;-2.10;99.90
32322;DHT22;61553;48.994;8.940;2023-02-27T01:31:01;-2.10;99.90
32322;DHT22;61553;48.994;8.940;2023-02-27T01:33:26;-2.10;99.90
32322;DHT22;61553;48.994;8.940;2023-02-27T01:35:52;-2.10;99.90
32322;DHT22;61553;48.994;8.940;2023-02-27T01:38:18;-2.20;99.90
32322;DHT22;61553;48.994;8.940;2023-02-27T01:40:43;-2.20;99.90
32322;DHT22;61553;48.994;8.940;2023-02-27T01:43:15;-2.20;99.90
32322;DHT22;61553;48.994;8.940;2023-02-27T01:45:42;-2.20;99.90
32322;DHT22;61553;48.994;8.940;2023-02-27T01:48:13;-2.10;99.90
32322;DHT22;61553;48.994;8.940;2023-02-27T01:51:04;-2.10;99.90
32322;DHT22;61553;48.994;8.940;2023-02-27T01:53:33;-2.10;99.90
32322;DHT22;61553;48.994;8.940;2023-02-27T01:56:13;-2.10;99.90
32322;DHT22;61553;48.994;8.940;2023-02-27T01:58:41;-2.20;99.90
32322;DHT22;61553;48.994;8.940;2023-02-27T02:01:07;-2.20;99.90
32322;DHT22;61553;48.994;8.940;2023-02-27T02:06:04;-2.10;99.90
32322;DHT22;61553;48.994;8.940;2023-02-27T02:08:34;-2.20;99.90
32322;DHT22;61553;48.994;8.940;2023-02-27T02:11:02;-2.20;99.90
32322;DHT22;61553;48.994;8.940;2023-02-27T02:13:27;-2.20;99.90
32322;DHT22;61553;48.994;8.940;2023-02-27T02:16:14;-2.10;99.90
32322;DHT22;61553;48.994;8.940;2023-02-27T02:22:31;-2.20;99.90
32322;DHT22;61553;48.994;8.940;2023-02-27T02:30:58;-2.20;99.90
32322;DHT22;61553;48.994;8.940;2023-02-27T02:36:39;-2.30;99.90
32322;DHT22;61553;48.994;8.940;2023-02-27T02:50:11;-1.40;99.90
32322;DHT22;61553;48.994;8.940;2023-02-27T02:52:55;-2.40;99.90
32322;DHT22;61553;48.994;8.940;2023-02-27T02:55:44;-2.40;99.90
32322;DHT22;61553;48.994;8.940;2023-02-27T03:01:35;-2.30;99.90
32322;DHT22;61553;48.994;8.940;2023-02-27T03:06:32;-2.40;99.90
32322;DHT22;61553;48.994;8.940;2023-02-27T03:09:10;-2.40;99.90
32322;DHT22;61553;48.994;8.940;2023-02-27T03:11:40;-2.40;99.90
32322;DHT22;61553;48.994;8.940;2023-02-27T03:14:38;-2.50;99.90
32322;DHT22;61553;48.994;8.940;2023-02-27T03:17:08;-2.40;99.90
32322;DHT22;61553;48.994;8.940;2023-02-27T03:19:51;-2.40;99.90
32322;DHT22;61553;48.994;8.940;2023-02-27T03:22:22;-2.50;99.90
32322;DHT22;61553;48.994;8.940;2023-02-27T03:24:52;-2.50;99.90
32322;DHT22;61553;48.994;8.940;2023-02-27T03:27:20;-2.50;99.90
32322;DHT22;61553;48.994;8.940;2023-02-27T03:33:01;-2.50;99.90
32322;DHT22;61553;48.994;8.940;2023-02-27T03:35:49;-2.60;99.90
32322;DHT22;61553;48.994;8.940;2023-02-27T03:41:23;-2.60;99.90
32322;DHT22;61553;48.994;8.940;2023-02-27T03:46:29;-2.60;99.90
32322;DHT22;61553;48.994;8.940;2023-02-27T03:48:54;-2.60;99.90
32322;DHT22;61553;48.994;8.940;2023-02-27T03:51:23;-2.70;99.90
32322;DHT22;61553;48.994;8.940;2023-02-27T03:53:59;-2.60;99.90
32322;DHT22;61553;48.994;8.940;2023-02-27T03:56:37;-2.60;99.90
32322;DHT22;61553;48.994;8.940;2023-02-27T03:59:04;-2.70;99.90
32322;DHT22;61553;48.994;8.940;2023-02-27T04:01:30;-2.70;99.90
32322;DHT22;61553;48.994;8.940;2023-02-27T04:04:10;-2.70;99.90
32322;DHT22;61553;48.994;8.940;2023-02-27T04:06:37;-2.70;99.90
32322;DHT22;61553;48.994;8.940;2023-02-27T04:18:39;-2.70;99.90
32322;DHT22;61553;48.994;8.940;2023-02-27T04:21:17;-2.70;99.90
32322;DHT22;61553;48.994;8.940;2023-02-27T04:26:46;-2.70;99.90
32322;DHT22;61553;48.994;8.940;2023-02-27T04:32:12;-2.80;99.90
32322;DHT22;61553;48.994;8.940;2023-02-27T04:34:44;-2.80;99.90
32322;DHT22;61553;48.994;8.940;2023-02-27T04:39:50;-2.80;99.90
32322;DHT22;61553;48.994;8.940;2023-02-27T04:42:22;-2.80;99.90
32322;DHT22;61553;48.994;8.940;2023-02-27T04:44:50;-2.80;99.90
32322;DHT22;61553;48.994;8.940;2023-02-27T04:47:19;-2.70;99.90
32322;DHT22;61553;48.994;8.940;2023-02-27T04:49:50;-2.70;99.90
32322;DHT22;61553;48.994;8.940;2023-02-27T04:52:30;-2.70;99.90
32322;DHT22;61553;48.994;8.940;2023-02-27T04:57:35;-2.70;99.90
32322;DHT22;61553;48.994;8.940;2023-02-27T05:00:06;-2.70;99.90
32322;DHT22;61553;48.994;8.940;2023-02-27T05:02:37;-2.70;99.90
32322;DHT22;61553;48.994;8.940;2023-02-27T05:05:12;-2.70;99.90
32322;DHT22;61553;48.994;8.940;2023-02-27T05:07:50;-2.70;99.90
32322;DHT22;61553;48.994;8.940;2023-02-27T05:10:35;-2.80;99.90
32322;DHT22;61553;48.994;8.940;2023-02-27T05:15:41;-2.70;99.90
32322;DHT22;61553;48.994;8.940;2023-02-27T05:18:10;-2.70;99.90
32322;DHT22;61553;48.994;8.940;2023-02-27T05:28:40;-2.70;99.90
32322;DHT22;61553;48.994;8.940;2023-02-27T05:33:53;-2.70;99.90
32322;DHT22;61553;48.994;8.940;2023-02-27T05:36:30;-2.70;99.90
32322;DHT22;61553;48.994;8.940;2023-02-27T05:39:03;-2.70;99.90
32322;DHT22;61553;48.994;8.940;2023-02-27T05:41:46;-2.70;99.90
32322;DHT22;61553;48.994;8.940;2023-02-27T05:44:24;-2.70;99.90
32322;DHT22;61553;48.994;8.940;2023-02-27T05:46:55;-2.70;99.90
32322;DHT22;61553;48.994;8.940;2023-02-27T05:49:26;-2.70;99.90
32322;DHT22;61553;48.994;8.940;2023-02-27T05:51:54;-2.70;99.90
32322;DHT22;61553;48.994;8.940;2023-02-27T05:54:28;-2.70;99.90
32322;DHT22;61553;48.994;8.940;2023-02-27T05:56:57;-2.80;99.90
32322;DHT22;61553;48.994;8.940;2023-02-27T05:59:34;-2.70;99.90
32322;DHT22;61553;48.994;8.940;2023-02-27T06:02:04;-2.80;99.90
32322;DHT22;61553;48.994;8.940;2023-02-27T06:04:30;-2.80;99.90
32322;DHT22;61553;48.994;8.940;2023-02-27T06:06:56;-2.80;99.90
32322;DHT22;61553;48.994;8.940;2023-02-27T06:09:22;-2.90;99.90
32322;DHT22;61553;48.994;8.940;2023-02-27T06:11:47;-2.90;99.90
32322;DHT22;61553;48.994;8.940;2023-02-27T06:14:13;-3.00;99.90
32322;DHT22;61553;48.994;8.940;2023-02-27T06:16:38;-3.00;99.90
32322;DHT22;61553;48.994;8.940;2023-02-27T06:19:05;-3.00;99.90
32322;DHT22;61553;48.994;8.940;2023-02-27T06:21:31;-3.00;99.90
32322;DHT22;61553;48.994;8.940;2023-02-27T06:23:57;-3.10;99.90
32322;DHT22;61553;48.994;8.940;2023-02-27T06:26:22;-3.10;99.90
32322;DHT22;61553;48.994;8.940;2023-02-27T06:28:48;-3.10;99.90
32322;DHT22;61553;48.994;8.940;2023-02-27T06:31:14;-3.00;99.90
32322;DHT22;61553;48.994;8.940;2023-02-27T06:33:39;-3.10;99.90
32322;DHT22;61553;48.994;8.940;2023-02-27T06:36:05;-3.10;99.90
32322;DHT22;61553;48.994;8.940;2023-02-27T06:38:31;-3.00;99.90
32322;DHT22;61553;48.994;8.940;2023-02-27T06:40:56;-3.00;99.90
32322;DHT22;61553;48.994;8.940;2023-02-27T06:43:23;-2.90;99.90
32322;DHT22;61553;48.994;8.940;2023-02-27T06:45:51;-2.90;99.90
32322;DHT22;61553;48.994;8.940;2023-02-27T06:48:17;-2.90;99.90
32322;DHT22;61553;48.994;8.940;2023-02-27T06:50:42;-2.90;99.90
32322;DHT22;61553;48.994;8.940;2023-02-27T06:53:08;-2.80;99.90
32322;DHT22;61553;48.994;8.940;2023-02-27T06:55:34;-2.80;99.90
32322;DHT22;61553;48.994;8.940;2023-02-27T06:57:59;-2.70;99.90
32322;DHT22;61553;48.994;8.940;2023-02-27T07:00:25;-2.70;99.90
32322;DHT22;61553;48.994;8.940;2023-02-27T07:02:50;-2.60;99.90
32322;DHT22;61553;48.994;8.940;2023-02-27T07:05:16;-2.50;99.90
32322;DHT22;61553;48.994;8.940;2023-02-27T07:07:42;-2.40;99.90
32322;DHT22;61553;48.994;8.940;2023-02-27T07:10:10;-2.50;99.90
32322;DHT22;61553;48.994;8.940;2023-02-27T07:12:37;-2.40;99.90
32322;DHT22;61553;48.994;8.940;2023-02-27T07:15:04;-2.30;99.90
32322;DHT22;61553;48.994;8.940;2023-02-27T07:17:30;-2.30;99.90
32322;DHT22;61553;48.994;8.940;2023-02-27T07:19:56;-2.30;99.90
32322;DHT22;61553;48.994;8.940;2023-02-27T07:22:22;-2.20;99.90
32322;DHT22;61553;48.994;8.940;2023-02-27T07:24:47;-2.20;99.90
32322;DHT22;61553;48.994;8.940;2023-02-27T07:27:13;-2.10;99.90
32322;DHT22;61553;48.994;8.940;2023-02-27T07:29:39;-2.10;99.90
32322;DHT22;61553;48.994;8.940;2023-02-27T07:32:04;-2.00;99.90
32322;DHT22;61553;48.994;8.940;2023-02-27T07:34:30;-1.90;99.90
32322;DHT22;61553;48.994;8.940;2023-02-27T07:36:55;-1.90;99.90
32322;DHT22;61553;48.994;8.940;2023-02-27T07:39:21;-1.90;99.90
32322;DHT22;61553;48.994;8.940;2023-02-27T07:41:47;-1.80;99.90
32322;DHT22;61553;48.994;8.940;2023-02-27T07:44:12;-1.70;99.90
32322;DHT22;61553;48.994;8.940;2023-02-27T07:46:38;-1.60;99.90
32322;DHT22;61553;48.994;8.940;2023-02-27T07:49:03;-1.60;99.90
32322;DHT22;61553;48.994;8.940;2023-02-27T07:51:30;-1.50;99.90
32322;DHT22;61553;48.994;8.940;2023-02-27T07:53:57;-1.40;99.90
32322;DHT22;61553;48.994;8.940;2023-02-27T07:56:23;-1.20;99.90
32322;DHT22;61553;48.994;8.940;2023-02-27T07:58:49;-1.20;99.90
32322;DHT22;61553;48.994;8.940;2023-02-27T08:01:15;-1.00;99.90
32322;DHT22;61553;48.994;8.940;2023-02-27T08:03:40;-0.90;99.90
32322;DHT22;61553;48.994;8.940;2023-02-27T08:06:06;-0.60;99.90
32322;DHT22;61553;48.994;8.940;2023-02-27T08:08:31;0.40;99.90
32322;DHT22;61553;48.994;8.940;2023-02-27T08:10:57;2.10;99.90
32322;DHT22;61553;48.994;8.940;2023-02-27T08:13:23;3.80;99.00
32322;DHT22;61553;48.994;8.940;2023-02-27T08:15:48;5.30;92.50
32322;DHT22;61553;48.994;8.940;2023-02-27T08:18:14;6.50;85.20
32322;DHT22;61553;48.994;8.940;2023-02-27T08:20:40;7.40;76.80
32322;DHT22;61553;48.994;8.940;2023-02-27T08:23:05;7.40;72.80
32322;DHT22;61553;48.994;8.940;2023-02-27T08:25:32;7.60;71.10
32322;DHT22;61553;48.994;8.940;2023-02-27T08:27:57;8.40;68.40
32322;DHT22;61553;48.994;8.940;2023-02-27T08:30:23;9.10;65.90
32322;DHT22;61553;48.994;8.940;2023-02-27T08:32:48;9.60;62.70
32322;DHT22;61553;48.994;8.940;2023-02-27T08:35:14;10.30;59.60
32322;DHT22;61553;48.994;8.940;2023-02-27T08:37:40;10.30;57.80
32322;DHT22;61553;48.994;8.940;2023-02-27T08:40:07;10.30;57.00
32322;DHT22;61553;48.994;8.940;2023-02-27T08:42:33;10.50;55.30
32322;DHT22;61553;48.994;8.940;2023-02-27T08:44:59;9.90;56.50
32322;DHT22;61553;48.994;8.940;2023-02-27T08:47:24;10.70;55.30
32322;DHT22;61553;48.994;8.940;2023-02-27T08:49:50;10.80;55.20
32322;DHT22;61553;48.994;8.940;2023-02-27T08:52:16;11.70;52.90
32322;DHT22;61553;48.994;8.940;2023-02-27T08:54:41;12.20;50.90
32322;DHT22;61553;48.994;8.940;2023-02-27T08:57:07;12.50;49.80
32322;DHT22;61553;48.994;8.940;2023-02-27T08:59:33;12.00;49.50
32322;DHT22;61553;48.994;8.940;2023-02-27T09:01:58;11.40;50.50
32322;DHT22;61553;48.994;8.940;2023-02-27T09:04:24;11.80;49.10
32322;DHT22;61553;48.994;8.940;2023-02-27T09:06:50;12.50;49.10
32322;DHT22;61553;48.994;8.940;2023-02-27T09:09:18;13.00;47.30
32322;DHT22;61553;48.994;8.940;2023-02-27T09:11:43;13.30;47.00
32322;DHT22;61553;48.994;8.940;2023-02-27T09:14:11;13.70;45.80
32322;DHT22;61553;48.994;8.940;2023-02-27T09:16:36;12.80;46.50
32322;DHT22;61553;48.994;8.940;2023-02-27T09:19:02;12.30;46.90
32322;DHT22;61553;48.994;8.940;2023-02-27T09:21:28;12.10;47.90
32322;DHT22;61553;48.994;8.940;2023-02-27T09:23:54;12.80;47.20
32322;DHT22;61553;48.994;8.940;2023-02-27T09:26:23;12.90;46.00
32322;DHT22;61553;48.994;8.940;2023-02-27T09:28:49;12.50;46.60
32322;DHT22;61553;48.994;8.940;2023-02-27T09:31:14;12.10;46.50
32322;DHT22;61553;48.994;8.940;2023-02-27T09:33:41;12.20;46.80
32322;DHT22;61553;48.994;8.940;2023-02-27T09:36:07;12.90;46.40
32322;DHT22;61553;48.994;8.940;2023-02-27T09:38:34;12.40;45.80
32322;DHT22;61553;48.994;8.940;2023-02-27T09:41:02;12.20;46.70
32322;DHT22;61553;48.994;8.940;2023-02-27T09:43:43;12.90;46.00
32322;DHT22;61553;48.994;8.940;2023-02-27T09:46:17;13.40;44.50
32322;DHT22;61553;48.994;8.940;2023-02-27T09:51:15;13.60;44.30
32322;DHT22;61553;48.994;8.940;2023-02-27T09:53:43;13.70;44.40
32322;DHT22;61553;48.994;8.940;2023-02-27T09:56:46;14.10;43.00
32322;DHT22;61553;48.994;8.940;2023-02-27T09:59:34;13.20;43.60
32322;DHT22;61553;48.994;8.940;2023-02-27T10:02:31;13.80;42.60
32322;DHT22;61553;48.994;8.940;2023-02-27T10:05:11;14.40;42.00
32322;DHT22;61553;48.994;8.940;2023-02-27T10:07:54;14.70;42.40
32322;DHT22;61553;48.994;8.940;2023-02-27T10:13:06;14.20;42.30
32322;DHT22;61553;48.994;8.940;2023-02-27T10:15:40;14.30;42.00
32322;DHT22;61553;48.994;8.940;2023-02-27T10:18:20;14.50;41.80
32322;DHT22;61553;48.994;8.940;2023-02-27T10:20:58;14.10;41.80
32322;DHT22;61553;48.994;8.940;2023-02-27T10:23:43;13.80;41.50
32322;DHT22;61553;48.994;8.940;2023-02-27T10:26:19;12.80;42.40
32322;DHT22;61553;48.994;8.940;2023-02-27T10:28:44;12.60;42.90
32322;DHT22;61553;48.994;8.940;2023-02-27T10:31:23;14.00;41.60
32322;DHT22;61553;48.994;8.940;2023-02-27T10:33:50;14.00;41.00
32322;DHT22;61553;48.994;8.940;2023-02-27T10:36:17;14.50;41.60
32322;DHT22;61553;48.994;8.940;2023-02-27T10:38:48;15.10;40.80
32322;DHT22;61553;48.994;8.940;2023-02-27T10:41:17;15.80;38.70
32322;DHT22;61553;48.994;8.940;2023-02-27T10:43:44;15.40;39.10
32322;DHT22;61553;48.994;8.940;2023-02-27T10:46:20;15.40;38.10
32322;DHT22;61553;48.994;8.940;2023-02-27T10:48:47;15.20;38.70
32322;DHT22;61553;48.994;8.940;2023-02-27T10:51:39;14.20;40.30
32322;DHT22;61553;48.994;8.940;2023-02-27T10:54:23;14.10;40.10
32322;DHT22;61553;48.994;8.940;2023-02-27T10:56:54;13.00;41.20
32322;DHT22;61553;48.994;8.940;2023-02-27T10:59:36;13.00;41.60
32322;DHT22;61553;48.994;8.940;2023-02-27T11:02:07;12.50;43.00
32322;DHT22;61553;48.994;8.940;2023-02-27T11:04:51;12.60;41.90
32322;DHT22;61553;48.994;8.940;2023-02-27T11:10:04;13.40;41.50
32322;DHT22;61553;48.994;8.940;2023-02-27T11:12:42;13.20;42.20
32322;DHT22;61553;48.994;8.940;2023-02-27T11:17:38;11.10;45.20
32322;DHT22;61553;48.994;8.940;2023-02-27T11:20:38;9.90;46.80
32322;DHT22;61553;48.994;8.940;2023-02-27T11:23:19;9.00;48.40
32322;DHT22;61553;48.994;8.940;2023-02-27T11:25:46;7.70;51.60
32322;DHT22;61553;48.994;8.940;2023-02-27T11:28:22;6.90;52.90
32322;DHT22;61553;48.994;8.940;2023-02-27T11:31:03;6.50;54.70
32322;DHT22;61553;48.994;8.940;2023-02-27T11:33:37;6.40;56.00
32322;DHT22;61553;48.994;8.940;2023-02-27T11:36:04;5.80;56.00
32322;DHT22;61553;48.994;8.940;2023-02-27T11:38:31;5.30;57.70
32322;DHT22;61553;48.994;8.940;2023-02-27T11:41:05;5.20;59.00
32322;DHT22;61553;48.994;8.940;2023-02-27T11:43:32;4.90;59.70
32322;DHT22;61553;48.994;8.940;2023-02-27T11:46:03;4.90;60.40
32322;DHT22;61553;48.994;8.940;2023-02-27T11:48:35;4.90;60.10
32322;DHT22;61553;48.994;8.940;2023-02-27T11:57:00;4.50;60.90
32322;DHT22;61553;48.994;8.940;2023-02-27T12:12:57;4.50;61.40
32322;DHT22;61553;48.994;8.940;2023-02-27T12:22:54;4.60;62.20
32322;DHT22;61553;48.994;8.940;2023-02-27T12:28:02;4.70;61.70
32322;DHT22;61553;48.994;8.940;2023-02-27T12:30:35;4.40;61.50
32322;DHT22;61553;48.994;8.940;2023-02-27T12:33:16;4.50;62.60
32322;DHT22;61553;48.994;8.940;2023-02-27T12:35:45;4.50;62.00
32322;DHT22;61553;48.994;8.940;2023-02-27T12:38:15;4.40;61.80
32322;DHT22;61553;48.994;8.940;2023-02-27T12:41:17;4.40;61.70
32322;DHT22;61553;48.994;8.940;2023-02-27T12:44:39;4.30;62.10
32322;DHT22;61553;48.994;8.940;2023-02-27T12:46:47;4.20;62.10
32322;DHT22;61553;48.994;8.940;2023-02-27T12:54:38;4.00;62.70
32322;DHT22;61553;48.994;8.940;2023-02-27T13:00:13;4.00;61.20
32322;DHT22;61553;48.994;8.940;2023-02-27T13:25:23;4.70;60.90
32322;DHT22;61553;48.994;8.940;2023-02-27T13:27:59;4.50;60.30
32322;DHT22;61553;48.994;8.940;2023-02-27T13:30:31;4.30;60.60
32322;DHT22;61553;48.994;8.940;2023-02-27T13:33:21;4.30;60.90
32322;DHT22;61553;48.994;8.940;2023-02-27T13:38:46;4.40;60.10
32322;DHT22;61553;48.994;8.940;2023-02-27T13:43:56;4.50;60.50
32322;DHT22;61553;48.994;8.940;2023-02-27T13:46:29;4.50;60.10
32322;DHT22;61553;48.994;8.940;2023-02-27T13:51:46;4.60;60.20
32322;DHT22;61553;48.994;8.940;2023-02-27T13:59:36;4.80;58.30
32322;DHT22;61553;48.994;8.940;2023-02-27T14:04:38;5.10;59.20
32322;DHT22;61553;48.994;8.940;2023-02-27T14:07:13;5.20;58.40
32322;DHT22;61553;48.994;8.940;2023-02-27T14:09:43;5.00;57.80
32322;DHT22;61553;48.994;8.940;2023-02-27T14:12:34;5.20;58.90
32322;DHT22;61553;48.994;8.940;2023-02-27T14:15:03;5.20;58.00
32322;DHT22;61553;48.994;8.940;2023-02-27T14:20:13;5.00;57.70
32322;DHT22;61553;48.994;8.940;2023-02-27T14:23:25;4.70;57.50
32322;DHT22;61553;48.994;8.940;2023-02-27T14:25:53;4.60;58.30
32322;DHT22;61553;48.994;8.940;2023-02-27T14:28:49;4.60;58.80
32322;DHT22;61553;48.994;8.940;2023-02-27T14:31:29;4.40;59.30
32322;DHT22;61553;48.994;8.940;2023-02-27T14:33:57;4.30;59.00
32322;DHT22;61553;48.994;8.940;2023-02-27T14:36:32;4.60;59.10
32322;DHT22;61553;48.994;8.940;2023-02-27T14:39:00;4.80;58.40
32322;DHT22;61553;48.994;8.940;2023-02-27T14:44:21;4.90;59.20
32322;DHT22;61553;48.994;8.940;2023-02-27T14:46:48;4.90;58.30
32322;DHT22;61553;48.994;8.940;2023-02-27T14:49:35;4.80;58.30
32322;DHT22;61553;48.994;8.940;2023-02-27T14:52:40;4.70;58.80
32322;DHT22;61553;48.994;8.940;2023-02-27T14:55:20;4.40;59.10
32322;DHT22;61553;48.994;8.940;2023-02-27T14:58:16;4.30;59.50
32322;DHT22;61553;48.994;8.940;2023-02-27T15:03:19;4.30;59.90
32322;DHT22;61553;48.994;8.940;2023-02-27T15:05:47;4.30;59.30
32322;DHT22;61553;48.994;8.940;2023-02-27T15:08:36;4.10;58.70
32322;DHT22;61553;48.994;8.940;2023-02-27T15:11:02;4.10;59.50
32322;DHT22;61553;48.994;8.940;2023-02-27T15:13:31;4.00;58.90
32322;DHT22;61553;48.994;8.940;2023-02-27T15:19:14;3.90;59.60
32322;DHT22;61553;48.994;8.940;2023-02-27T15:21:42;3.90;59.90
32322;DHT22;61553;48.994;8.940;2023-02-27T15:26:49;3.90;60.00
32322;DHT22;61553;48.994;8.940;2023-02-27T15:29:20;3.70;60.20
32322;DHT22;61553;48.994;8.940;2023-02-27T15:31:47;3.70;60.80
32322;DHT22;61553;48.994;8.940;2023-02-27T15:34:14;3.70;60.90
32322;DHT22;61553;48.994;8.940;2023-02-27T15:36:45;3.70;60.60
32322;DHT22;61553;48.994;8.940;2023-02-27T15:41:46;3.50;61.30
32322;DHT22;61553;48.994;8.940;2023-02-27T15:44:15;3.50;60.60
32322;DHT22;61553;48.994;8.940;2023-02-27T15:46:41;3.30;60.70
32322;DHT22;61553;48.994;8.940;2023-02-27T15:49:18;3.40;61.20
32322;DHT22;61553;48.994;8.940;2023-02-27T15:55:09;3.40;61.20
32322;DHT22;61553;48.994;8.940;2023-02-27T15:57:31;3.40;61.20
32322;DHT22;61553;48.994;8.940;2023-02-27T15:59:59;3.40;61.10
32322;DHT22;61553;48.994;8.940;2023-02-27T16:02:28;3.40;61.50
32322;DHT22;61553;48.994;8.940;2023-02-27T16:04:54;3.40;62.20
32322;DHT22;61553;48.994;8.940;2023-02-27T16:07:23;3.30;62.70
32322;DHT22;61553;48.994;8.940;2023-02-27T16:09:55;3.20;62.70
32322;DHT22;61553;48.994;8.940;2023-02-27T16:12:29;3.20;62.70
32322;DHT22;61553;48.994;8.940;2023-02-27T16:17:56;3.10;62.90
32322;DHT22;61553;48.994;8.940;2023-02-27T16:20:43;3.00;62.70
32322;DHT22;61553;48.994;8.940;2023-02-27T16:25:39;3.00;63.10
32322;DHT22;61553;48.994;8.940;2023-02-27T16:28:10;3.00;62.70
32322;DHT22;61553;48.994;8.940;2023-02-27T16:30:36;2.90;61.80
32322;DHT22;61553;48.994;8.940;2023-02-27T16:33:01;2.80;62.70
32322;DHT22;61553;48.994;8.940;2023-02-27T16:35:27;2.70;62.10
32322;DHT22;61553;48.994;8.940;2023-02-27T16:37:59;2.70;62.30
32322;DHT22;61553;48.994;8.940;2023-02-27T16:40:26;2.60;63.30
32322;DHT22;61553;48.994;8.940;2023-02-27T16:42:53;2.60;63.00
32322;DHT22;61553;48.994;8.940;2023-02-27T16:45:21;2.50;63.10
32322;DHT22;61553;48.994;8.940;2023-02-27T16:47:48;2.50;63.50
32322;DHT22;61553;48.994;8.940;2023-02-27T16:50:20;2.30;63.40
32322;DHT22;61553;48.994;8.940;2023-02-27T16:52:46;2.40;63.50
32322;DHT22;61553;48.994;8.940;2023-02-27T16:55:12;2.30;63.40
32322;DHT22;61553;48.994;8.940;2023-02-27T16:57:37;2.30;63.20
32322;DHT22;61553;48.994;8.940;2023-02-27T17:00:04;2.40;63.60
32322;DHT22;61553;48.994;8.940;2023-02-27T17:02:32;2.30;63.70
32322;DHT22;61553;48.994;8.940;2023-02-27T17:04:58;2.40;63.20
32322;DHT22;61553;48.994;8.940;2023-02-27T17:07:23;2.20;63.80
32322;DHT22;61553;48.994;8.940;2023-02-27T17:09:49;2.30;64.30
32322;DHT22;61553;48.994;8.940;2023-02-27T17:12:15;2.20;64.50
32322;DHT22;61553;48.994;8.940;2023-02-27T17:14:41;2.20;64.70
32322;DHT22;61553;48.994;8.940;2023-02-27T17:17:07;2.20;64.50
32322;DHT22;61553;48.994;8.940;2023-02-27T17:19:35;2.20;64.80
32322;DHT22;61553;48.994;8.940;2023-02-27T17:22:01;2.20;64.60
32322;DHT22;61553;48.994;8.940;2023-02-27T17:24:26;2.10;65.00
32322;DHT22;61553;48.994;8.940;2023-02-27T17:26:52;2.10;64.60
32322;DHT22;61553;48.994;8.940;2023-02-27T17:29:18;2.20;65.60
32322;DHT22;61553;48.994;8.940;2023-02-27T17:31:43;2.10;65.60
32322;DHT22;61553;48.994;8.940;2023-02-27T17:34:09;2.00;65.20
32322;DHT22;61553;48.994;8.940;2023-02-27T17:36:35;2.10;66.50
32322;DHT22;61553;48.994;8.940;2023-02-27T17:39:01;2.00;65.40
32322;DHT22;61553;48.994;8.940;2023-02-27T17:41:29;2.10;64.90
32322;DHT22;61553;48.994;8.940;2023-02-27T17:43:56;2.00;65.70
32322;DHT22;61553;48.994;8.940;2023-02-27T17:46:25;1.90;65.40
32322;DHT22;61553;48.994;8.940;2023-02-27T17:48:52;2.00;65.10
32322;DHT22;61553;48.994;8.940;2023-02-27T17:51:19;1.80;65.30
32322;DHT22;61553;48.994;8.940;2023-02-27T17:53:44;1.90;65.30
32322;DHT22;61553;48.994;8.940;2023-02-27T17:56:11;1.90;64.90
32322;DHT22;61553;48.994;8.940;2023-02-27T17:58:37;1.80;65.40
32322;DHT22;61553;48.994;8.940;2023-02-27T18:01:11;1.80;65.50
32322;DHT22;61553;48.994;8.940;2023-02-27T18:03:37;1.80;66.10
32322;DHT22;61553;48.994;8.940;2023-02-27T18:06:04;1.80;66.40
32322;DHT22;61553;48.994;8.940;2023-02-27T18:08:30;1.80;66.30
32322;DHT22;61553;48.994;8.940;2023-02-27T18:10:57;1.80;66.60
32322;DHT22;61553;48.994;8.940;2023-02-27T18:13:23;1.80;66.30
32322;DHT22;61553;48.994;8.940;2023-02-27T18:15:50;1.80;66.60
32322;DHT22;61553;48.994;8.940;2023-02-27T18:18:17;1.80;65.90
32322;DHT22;61553;48.994;8.940;2023-02-27T18:20:44;1.80;66.30
32322;DHT22;61553;48.994;8.940;2023-02-27T18:23:11;1.90;66.00
32322;DHT22;61553;48.994;8.940;2023-02-27T18:25:37;1.80;66.60
32322;DHT22;61553;48.994;8.940;2023-02-27T18:28:05;1.80;66.70
32322;DHT22;61553;48.994;8.940;2023-02-27T18:30:34;1.70;66.50
32322;DHT22;61553;48.994;8.940;2023-02-27T18:33:00;1.80;65.70
32322;DHT22;61553;48.994;8.940;2023-02-27T18:35:26;1.80;66.10
32322;DHT22;61553;48.994;8.940;2023-02-27T18:37:52;1.80;66.60
32322;DHT22;61553;48.994;8.940;2023-02-27T18:40:17;1.70;67.00
32322;DHT22;61553;48.994;8.940;2023-02-27T18:42:47;1.80;66.60
32322;DHT22;61553;48.994;8.940;2023-02-27T18:45:13;1.70;67.20
32322;DHT22;61553;48.994;8.940;2023-02-27T18:47:39;1.80;67.80
32322;DHT22;61553;48.994;8.940;2023-02-27T18:50:04;1.70;68.00
32322;DHT22;61553;48.994;8.940;2023-02-27T18:52:30;1.70;68.50
32322;DHT22;61553;48.994;8.940;2023-02-27T18:54:57;1.70;68.80
32322;DHT22;61553;48.994;8.940;2023-02-27T18:57:22;1.70;69.10
32322;DHT22;61553;48.994;8.940;2023-02-27T18:59:48;1.60;70.00
32322;DHT22;61553;48.994;8.940;2023-02-27T19:02:15;1.60;70.00